createdAt,value
2022-12-09T00:01:03.189Z,0.06
2022-12-09T00:05:01.116Z,0.06
2022-12-09T00:08:59.160Z,0.06
2022-12-09T00:12:58.537Z,0.06
2022-12-09T00:17:00.445Z,0.06
2022-12-09T00:20:58.795Z,0.06
2022-12-09T00:24:58.562Z,0.06
2022-12-09T00:28:58.683Z,0.06
2022-12-09T00:32:58.663Z,0.06
2022-12-09T00:36:58.610Z,0.06
2022-12-09T00:40:58.900Z,0.06
2022-12-09T00:44:58.398Z,0.06
2022-12-09T00:48:58.395Z,0.06
2022-12-09T00:52:58.334Z,0.06
2022-12-09T00:56:57.484Z,0.06
2022-12-09T01:01:04.973Z,0.06
2022-12-09T01:04:59.365Z,0.06
2022-12-09T01:09:02.275Z,0.06
2022-12-09T01:12:58.289Z,0.06
2022-12-09T01:16:58.945Z,0.06
2022-12-09T01:20:58.922Z,0.06
2022-12-09T01:24:58.543Z,0.06
2022-12-09T01:28:58.841Z,0.06
2022-12-09T01:32:59.517Z,0.06
2022-12-09T01:36:59.251Z,0.06
2022-12-09T01:40:58.461Z,0.06
2022-12-09T01:44:59.460Z,0.06
2022-12-09T01:48:59.081Z,0.06
2022-12-09T01:52:58.609Z,0.06
2022-12-09T01:56:59.802Z,0.06
2022-12-09T02:01:03.484Z,0.06
2022-12-09T02:05:00.378Z,0.06
2022-12-09T02:08:58.853Z,0.06
2022-12-09T02:12:58.808Z,0.06
2022-12-09T02:16:59.224Z,0.06
2022-12-09T02:20:59.327Z,0.06
2022-12-09T02:24:58.570Z,0.06
2022-12-09T02:28:58.622Z,0.06
2022-12-09T02:33:00.132Z,0.06
2022-12-09T02:36:58.493Z,0.06
2022-12-09T02:40:59.272Z,0.06
2022-12-09T02:45:05.775Z,0.06
2022-12-09T02:49:00.385Z,0.06
2022-12-09T02:54:24.509Z,0.06
2022-12-09T02:56:58.633Z,0.06
2022-12-09T03:01:05.243Z,0.06
2022-12-09T03:04:59.330Z,0.06
2022-12-09T03:08:59.649Z,0.06
2022-12-09T03:12:58.170Z,0.06
2022-12-09T03:17:00.354Z,0.06
2022-12-09T03:20:59.180Z,0.06
2022-12-09T03:24:59.400Z,0.06
2022-12-09T03:28:59.172Z,0.06
2022-12-09T03:33:00.414Z,0.06
2022-12-09T03:36:58.607Z,0.06
2022-12-09T03:41:00.209Z,0.06
2022-12-09T03:44:58.487Z,0.06
2022-12-09T03:48:59.774Z,0.06
2022-12-09T03:52:58.859Z,0.06
2022-12-09T03:56:58.419Z,0.06
2022-12-09T04:01:03.029Z,0.06
2022-12-09T04:04:59.347Z,0.06
2022-12-09T04:09:02.523Z,0.06
2022-12-09T04:12:59.589Z,0.06
2022-12-09T04:16:59.407Z,0.06
2022-12-09T04:20:58.964Z,0.06
2022-12-09T04:24:58.964Z,0.06
2022-12-09T04:28:59.664Z,0.06
2022-12-09T04:33:00.119Z,0.06
2022-12-09T04:36:58.699Z,0.06
2022-12-09T04:41:06.782Z,0.06
2022-12-09T04:44:59.499Z,0.06
2022-12-09T04:48:59.210Z,0.06
2022-12-09T04:52:59.075Z,0.06
2022-12-09T04:56:58.380Z,0.06
2022-12-09T05:01:04.685Z,0.06
2022-12-09T05:05:00.508Z,0.06
2022-12-09T05:09:06.665Z,0.06
2022-12-09T05:12:59.778Z,0.06
2022-12-09T05:17:03.929Z,0.06
2022-12-09T05:20:59.656Z,0.06
2022-12-09T05:24:59.981Z,0.06
2022-12-09T05:28:59.048Z,0.06
2022-12-09T05:33:00.618Z,0.06
2022-12-09T05:37:00.038Z,0.06
2022-12-09T05:41:00.641Z,0.06
2022-12-09T05:44:59.263Z,0.06
2022-12-09T05:49:00.486Z,0.06
2022-12-09T05:52:59.207Z,0.06
2022-12-09T05:57:06.510Z,0.06
2022-12-09T06:01:04.310Z,0.06
2022-12-09T06:05:01.305Z,0.06
2022-12-09T06:09:05.947Z,0.06
2022-12-09T06:12:59.464Z,0.06
2022-12-09T06:17:00.317Z,0.06
2022-12-09T06:21:00.433Z,0.06
2022-12-09T06:25:06.828Z,0.06
2022-12-09T06:28:59.755Z,0.06
2022-12-09T06:33:00.755Z,0.06
2022-12-09T06:37:00.860Z,0.06
2022-12-09T06:41:00.036Z,0.06
2022-12-09T06:45:09.996Z,0.06
2022-12-09T06:49:00.881Z,0.06
2022-12-09T06:52:59.738Z,0.06
2022-12-09T06:57:07.321Z,0.06
2022-12-09T07:01:03.967Z,0.06
2022-12-09T07:05:02.372Z,0.06
2022-12-09T07:08:59.294Z,0.06
2022-12-09T07:12:59.336Z,0.06
2022-12-09T07:17:00.880Z,0.06
2022-12-09T07:21:06.244Z,0.06
2022-12-09T07:25:00.347Z,0.06
2022-12-09T07:29:00.003Z,0.06
2022-12-09T07:33:00.138Z,0.06
2022-12-09T07:37:07.208Z,0.06
2022-12-09T07:40:59.701Z,0.06
2022-12-09T07:44:58.626Z,0.06
2022-12-09T07:49:01.218Z,0.06
2022-12-09T07:52:58.464Z,0.06
2022-12-09T07:57:00.562Z,0.06
2022-12-09T08:01:03.699Z,0.06
2022-12-09T08:05:02.272Z,0.06
2022-12-09T08:09:01.120Z,0.06
2022-12-09T08:12:59.519Z,0.06
2022-12-09T08:17:00.314Z,0.06
2022-12-09T08:21:05.276Z,0.06
2022-12-09T08:25:00.399Z,0.06
2022-12-09T08:29:01.142Z,0.06
2022-12-09T08:33:01.754Z,0.06
2022-12-09T08:37:02.239Z,0.06
2022-12-09T08:41:00.613Z,0.06
2022-12-09T08:45:02.365Z,0.06
2022-12-09T08:49:00.481Z,0.06
2022-12-09T08:53:03.940Z,0.06
2022-12-09T08:57:00.412Z,0.06
2022-12-09T09:01:02.304Z,0.06
2022-12-09T09:05:01.653Z,0.06
2022-12-09T09:09:00.306Z,0.06
2022-12-09T09:13:06.361Z,0.06
2022-12-09T09:17:00.128Z,0.06
2022-12-09T09:21:01.943Z,0.06
2022-12-09T09:25:01.039Z,0.06
2022-12-09T09:29:06.038Z,0.06
2022-12-09T09:33:00.960Z,0.06
2022-12-09T09:37:07.580Z,0.06
2022-12-09T09:41:01.452Z,0.06
2022-12-09T09:44:59.579Z,0.06
2022-12-09T09:49:00.701Z,0.06
2022-12-09T09:53:00.539Z,0.06
2022-12-09T09:57:00.121Z,0.06
2022-12-09T10:01:09.538Z,0.06
2022-12-09T10:05:02.039Z,0.06
2022-12-09T10:09:01.502Z,0.06
2022-12-09T10:13:07.210Z,0.06
2022-12-09T10:17:00.448Z,0.06
2022-12-09T10:21:03.186Z,0.06
2022-12-09T10:25:04.375Z,0.06
2022-12-09T10:28:59.394Z,0.06
2022-12-09T10:32:59.901Z,0.06
2022-12-09T10:37:05.166Z,0.06
2022-12-09T10:41:00.662Z,0.06
2022-12-09T10:45:00.082Z,0.06
2022-12-09T10:49:08.981Z,0.06
2022-12-09T10:52:59.990Z,0.06
2022-12-09T10:56:58.779Z,5.05
2022-12-09T11:01:10.294Z,5.05
2022-12-09T11:05:02.358Z,5.05
2022-12-09T11:09:01.176Z,5.05
2022-12-09T11:13:04.473Z,5.05
2022-12-09T11:17:00.680Z,5.05
2022-12-09T11:21:02.049Z,5.05
2022-12-09T11:25:02.098Z,5.05
2022-12-09T11:28:59.486Z,5.05
2022-12-09T11:33:02.235Z,5.05
2022-12-09T11:37:06.744Z,5.05
2022-12-09T11:40:58.577Z,5.05
2022-12-09T11:44:57.862Z,5.05
2022-12-09T11:49:31.309Z,5.05
2022-12-09T11:52:58.432Z,5.05
2022-12-09T11:56:58.311Z,5.05
2022-12-09T12:01:03.953Z,5.05
2022-12-09T12:04:58.305Z,0.57
2022-12-09T12:08:59.217Z,0.04
2022-12-09T12:12:58.643Z,0.04
2022-12-09T12:17:02.630Z,0.04
2022-12-09T12:20:57.982Z,0.04
2022-12-09T12:24:57.893Z,0.04
2022-12-09T12:29:07.614Z,0.04
2022-12-09T12:33:59.954Z,0.04
2022-12-09T12:36:57.392Z,0.04
2022-12-09T12:41:01.079Z,0.04
2022-12-09T12:44:58.135Z,0.04
2022-12-09T12:48:58.152Z,0.04
2022-12-09T12:53:39.735Z,0.04
2022-12-09T12:56:57.872Z,0.04
2022-12-09T13:01:01.966Z,0.04
2022-12-09T13:04:57.944Z,0.04
2022-12-09T13:09:03.004Z,0.04
2022-12-09T13:12:58.206Z,0.04
2022-12-09T13:16:58.353Z,0.31
2022-12-09T13:20:58.295Z,0.03
2022-12-09T13:25:00.353Z,0.03
2022-12-09T13:28:58.418Z,0.03
2022-12-09T13:32:57.803Z,0.02
2022-12-09T13:37:10.064Z,0.02
2022-12-09T13:40:58.245Z,0.02
2022-12-09T13:44:57.898Z,0.02
2022-12-09T13:49:02.123Z,0.02
2022-12-09T13:52:58.100Z,0.02
2022-12-09T13:56:58.339Z,0.02
2022-12-09T14:01:04.668Z,0.02
2022-12-09T14:04:57.723Z,0.02
2022-12-09T14:08:58.797Z,0.01
2022-12-09T14:13:06.534Z,0.01
2022-12-09T14:16:58.559Z,0.01
2022-12-09T14:20:58.216Z,0.01
2022-12-09T14:24:57.564Z,0.01
2022-12-09T14:28:58.499Z,0.01
2022-12-09T14:32:58.045Z,0.01
2022-12-09T14:37:05.520Z,0.01
2022-12-09T14:40:58.425Z,0.01
2022-12-09T14:44:58.058Z,0.01
2022-12-09T14:48:57.778Z,0.01
2022-12-09T14:52:58.377Z,0.01
2022-12-09T14:56:58.274Z,0.01
2022-12-09T15:01:01.025Z,0.01
2022-12-09T15:04:58.885Z,0.01
2022-12-09T15:08:58.718Z,0.01
2022-12-09T15:12:57.765Z,0.01
2022-12-09T15:17:02.095Z,0.01
2022-12-09T15:20:59.277Z,0.01
2022-12-09T15:25:13.308Z,0.01
2022-12-09T15:29:00.722Z,0.01
2022-12-09T15:32:58.531Z,0.01
2022-12-09T15:36:58.003Z,0.01
2022-12-09T15:40:58.551Z,0.01
2022-12-09T15:44:58.310Z,0.01
2022-12-09T15:48:57.969Z,0.01
2022-12-09T15:52:58.738Z,0.01
2022-12-09T15:56:58.455Z,0.01
2022-12-09T16:01:06.624Z,0.01
2022-12-09T16:04:57.910Z,0.01
2022-12-09T16:08:58.637Z,0.01
2022-12-09T16:12:58.060Z,0.01
2022-12-09T16:16:58.236Z,0.01
2022-12-09T16:20:58.528Z,0.01
2022-12-09T16:25:35.453Z,0.01
2022-12-09T16:28:58.619Z,0.01
2022-12-09T16:32:58.396Z,0.01
2022-12-09T16:36:59.050Z,0.01
2022-12-09T16:40:58.118Z,0.01
2022-12-09T16:44:58.457Z,0.01
2022-12-09T16:49:04.416Z,0.01
2022-12-09T16:52:58.545Z,0.01
2022-12-09T16:56:57.835Z,0.01
2022-12-09T17:01:01.271Z,0.01
2022-12-09T17:04:57.831Z,0.01
2022-12-09T17:08:57.902Z,0.01
2022-12-09T17:12:58.537Z,0.01
2022-12-09T17:17:00.958Z,0.01
2022-12-09T17:20:57.894Z,0.01
2022-12-09T17:24:58.165Z,0.01
2022-12-09T17:29:12.512Z,0.01
2022-12-09T17:32:58.645Z,0.01
2022-12-09T17:36:58.291Z,0.01
2022-12-09T17:41:00.333Z,0.01
2022-12-09T17:44:58.441Z,0.01
2022-12-09T17:48:58.354Z,0.01
2022-12-09T17:52:57.942Z,0.01
2022-12-09T17:56:58.655Z,0.01
2022-12-09T18:01:01.003Z,0.01
2022-12-09T18:05:04.671Z,0.01
2022-12-09T18:08:58.428Z,0.01
2022-12-09T18:12:58.026Z,0.01
2022-12-09T18:16:58.893Z,0.01
2022-12-09T18:20:58.555Z,0.01
2022-12-09T18:24:58.304Z,0.01
2022-12-09T18:28:57.955Z,0.01
2022-12-09T18:32:58.993Z,0.01
2022-12-09T18:36:58.099Z,0.01
2022-12-09T18:40:57.930Z,0.01
2022-12-09T18:44:58.337Z,0.01
2022-12-09T18:48:58.225Z,0.01
2022-12-09T18:52:58.415Z,0.01
2022-12-09T18:56:58.088Z,0.01
2022-12-09T19:00:57.747Z,0.01
2022-12-09T19:04:58.191Z,0.01
2022-12-09T19:08:58.033Z,0.01
2022-12-09T19:13:41.577Z,0.01
2022-12-09T19:16:58.165Z,0.01
2022-12-09T19:20:58.334Z,0.01
2022-12-09T19:25:05.317Z,0.01
2022-12-09T19:28:57.694Z,0.01
2022-12-09T19:33:36.694Z,0.01
2022-12-09T19:36:58.063Z,0.01
2022-12-09T19:40:57.619Z,0.01
2022-12-09T19:45:37.209Z,0.01
2022-12-09T19:48:58.219Z,0.01
2022-12-09T19:52:58.113Z,0.01
2022-12-09T19:56:57.831Z,0.01
2022-12-09T20:01:04.418Z,0.01
2022-12-09T20:05:34.375Z,0.01
2022-12-09T20:08:58.213Z,0.01
2022-12-09T20:12:57.867Z,0.01
2022-12-09T20:16:58.084Z,0.01
2022-12-09T20:21:00.523Z,0.01
2022-12-09T20:24:58.234Z,0.01
2022-12-09T20:28:57.916Z,0.01
2022-12-09T20:32:57.695Z,0.01
2022-12-09T20:36:58.213Z,0.01
2022-12-09T20:41:03.452Z,0.01
2022-12-09T20:44:58.388Z,0.01
2022-12-09T20:48:58.184Z,0.01
2022-12-09T20:52:58.065Z,0.01
2022-12-09T20:56:57.772Z,0.01
2022-12-09T21:01:01.463Z,0.01
2022-12-09T21:04:57.993Z,0.01
2022-12-09T21:09:05.375Z,0.01
2022-12-09T21:12:57.970Z,0.01
2022-12-09T21:16:58.060Z,0.01
2022-12-09T21:21:03.990Z,0.01
2022-12-09T21:24:58.284Z,0.01
2022-12-09T21:28:57.730Z,0.01
2022-12-09T21:32:58.658Z,0.01
2022-12-09T21:36:58.209Z,0.01
2022-12-09T21:40:58.662Z,0.01
2022-12-09T21:44:58.073Z,0.01
2022-12-09T21:49:04.417Z,0.01
2022-12-09T21:52:58.286Z,0.01
2022-12-09T21:56:57.964Z,0.01
2022-12-09T22:01:04.396Z,0.01
2022-12-09T22:04:58.068Z,0.01
2022-12-09T22:08:58.068Z,0.01
2022-12-09T22:12:58.334Z,0.01
2022-12-09T22:16:58.584Z,0.01
2022-12-09T22:22:09.914Z,0.01
2022-12-09T22:24:58.200Z,0.01
2022-12-09T22:28:58.052Z,0.01
2022-12-09T22:33:04.011Z,0.01
2022-12-09T22:37:06.829Z,0.01
2022-12-09T22:40:58.222Z,0.01
2022-12-09T22:44:57.889Z,0.01
2022-12-09T22:48:58.438Z,0.01
2022-12-09T22:52:58.298Z,0.01
2022-12-09T22:56:57.856Z,0.01
2022-12-09T23:01:02.338Z,0.01
2022-12-09T23:04:57.516Z,0.01
2022-12-09T23:08:58.480Z,0.01
2022-12-09T23:12:58.036Z,0.01
2022-12-09T23:16:57.973Z,0.01
2022-12-09T23:20:58.423Z,0.01
2022-12-09T23:24:58.990Z,0.01
2022-12-09T23:28:57.534Z,0.01
2022-12-09T23:32:58.554Z,0.01
2022-12-09T23:36:57.979Z,0.01
2022-12-09T23:40:57.811Z,0.01
2022-12-09T23:44:58.571Z,0.01
2022-12-09T23:48:58.465Z,0.01
2022-12-09T23:52:57.848Z,0.01
2022-12-09T23:56:57.675Z,0.01
